createdAt,value
2023-05-22T00:01:46.657Z,25.38
2023-05-22T00:04:13.895Z,26.25
2023-05-22T00:06:43.747Z,29.45
2023-05-22T00:09:10.453Z,23.95
2023-05-22T00:11:37.241Z,25.92
2023-05-22T00:14:03.955Z,25.77
2023-05-22T00:16:30.772Z,24.30
2023-05-22T00:18:57.859Z,26.52
2023-05-22T00:21:25.003Z,26.30
2023-05-22T00:23:51.698Z,25.27
2023-05-22T00:26:18.383Z,26.67
2023-05-22T00:28:45.244Z,25.73
2023-05-22T00:31:11.975Z,28.35
2023-05-22T00:33:38.730Z,29.65
2023-05-22T00:36:05.916Z,29.50
2023-05-22T00:38:34.699Z,25.80
2023-05-22T00:41:02.544Z,24.98
2023-05-22T00:43:29.452Z,27.95
2023-05-22T00:45:56.612Z,29.05
2023-05-22T00:48:24.104Z,28.80
2023-05-22T00:50:52.083Z,31.15
2023-05-22T00:53:24.169Z,30.35
2023-05-22T00:55:54.920Z,31.35
2023-05-22T00:58:22.280Z,31.48
2023-05-22T01:00:49.268Z,27.20
2023-05-22T01:03:17.410Z,30.42
2023-05-22T01:05:45.187Z,30.70
2023-05-22T01:08:12.484Z,32.40
2023-05-22T01:10:40.963Z,31.95
2023-05-22T01:13:43.303Z,31.15
2023-05-22T01:16:39.569Z,28.00
2023-05-22T01:19:26.757Z,26.98
2023-05-22T01:21:56.220Z,28.60
2023-05-22T01:24:56.928Z,27.80
2023-05-22T01:27:45.803Z,27.98
2023-05-22T01:30:18.113Z,25.42
2023-05-22T01:32:47.793Z,29.52
2023-05-22T01:35:20.179Z,25.58
2023-05-22T01:37:49.223Z,29.05
2023-05-22T01:40:17.038Z,27.65
2023-05-22T01:42:44.000Z,26.75
2023-05-22T01:45:11.848Z,28.25
2023-05-22T01:47:39.042Z,27.45
2023-05-22T01:50:06.643Z,26.02
2023-05-22T01:52:58.877Z,29.10
2023-05-22T01:55:45.293Z,27.90
2023-05-22T01:58:38.212Z,29.10
2023-05-22T02:01:10.028Z,27.40
2023-05-22T02:03:39.507Z,27.58
2023-05-22T02:06:08.739Z,27.98
2023-05-22T02:08:40.551Z,29.83
2023-05-22T02:11:11.049Z,29.80
2023-05-22T02:13:38.354Z,28.48
2023-05-22T02:16:06.323Z,30.35
2023-05-22T02:18:33.629Z,26.85
2023-05-22T02:21:01.111Z,27.10
2023-05-22T02:23:29.571Z,31.05
2023-05-22T02:25:56.551Z,29.73
2023-05-22T02:28:24.215Z,28.73
2023-05-22T02:30:51.166Z,30.40
2023-05-22T02:33:19.061Z,29.88
2023-05-22T02:35:46.190Z,32.45
2023-05-22T02:38:13.126Z,28.52
2023-05-22T02:40:40.468Z,29.17
2023-05-22T02:43:07.507Z,28.60
2023-05-22T02:45:36.439Z,28.40
2023-05-22T02:48:03.805Z,28.40
2023-05-22T02:50:31.894Z,30.83
2023-05-22T02:52:58.587Z,28.50
2023-05-22T02:55:25.445Z,28.15
2023-05-22T02:57:52.130Z,28.92
2023-05-22T03:00:19.560Z,29.42
2023-05-22T03:02:46.382Z,29.42
2023-05-22T03:05:17.356Z,29.63
2023-05-22T03:07:48.144Z,27.50
2023-05-22T03:10:15.418Z,29.10
2023-05-22T03:12:42.267Z,30.85
2023-05-22T03:15:11.011Z,30.63
2023-05-22T03:17:40.000Z,29.08
2023-05-22T03:20:08.590Z,29.98
2023-05-22T03:22:35.473Z,30.42
2023-05-22T03:25:02.363Z,31.70
2023-05-22T03:27:29.877Z,28.73
2023-05-22T03:29:56.802Z,30.88
2023-05-22T03:32:24.000Z,29.10
2023-05-22T03:34:51.015Z,31.35
2023-05-22T03:37:17.775Z,33.55
2023-05-22T03:39:44.767Z,29.63
2023-05-22T03:42:24.190Z,33.47
2023-05-22T03:44:51.296Z,29.27
2023-05-22T03:47:19.116Z,29.95
2023-05-22T03:49:46.243Z,28.92
2023-05-22T03:52:13.044Z,27.38
2023-05-22T03:54:39.870Z,31.42
2023-05-22T03:57:06.948Z,31.95
2023-05-22T03:59:33.654Z,33.13
2023-05-22T04:02:01.350Z,30.63
2023-05-22T04:04:28.559Z,31.75
2023-05-22T04:06:57.945Z,29.88
2023-05-22T04:09:27.719Z,29.65
2023-05-22T04:11:56.466Z,29.45
2023-05-22T04:14:23.199Z,31.65
2023-05-22T04:16:50.499Z,32.10
2023-05-22T04:19:18.125Z,32.88
2023-05-22T04:21:46.448Z,30.40
2023-05-22T04:24:13.357Z,32.13
2023-05-22T04:26:42.363Z,33.10
2023-05-22T04:29:10.500Z,34.63
2023-05-22T04:31:37.508Z,35.40
2023-05-22T04:34:05.285Z,34.65
2023-05-22T04:36:32.019Z,30.13
2023-05-22T04:39:00.328Z,33.03
2023-05-22T04:41:27.084Z,32.35
2023-05-22T04:43:54.518Z,35.28
2023-05-22T04:46:21.331Z,32.22
2023-05-22T04:48:48.250Z,32.47
2023-05-22T04:51:15.824Z,34.17
2023-05-22T04:53:42.783Z,33.03
2023-05-22T04:56:10.006Z,33.97
2023-05-22T04:58:38.479Z,29.15
2023-05-22T05:01:06.119Z,34.22
2023-05-22T05:03:33.993Z,32.92
2023-05-22T05:06:00.674Z,35.53
2023-05-22T05:08:27.641Z,32.92
2023-05-22T05:10:55.489Z,33.35
2023-05-22T05:13:23.063Z,33.88
2023-05-22T05:15:50.063Z,30.63
2023-05-22T05:18:17.550Z,32.00
2023-05-22T05:20:44.398Z,31.60
2023-05-22T05:23:11.236Z,32.92
2023-05-22T05:25:38.749Z,30.50
2023-05-22T05:28:10.800Z,29.92
2023-05-22T05:30:39.621Z,31.25
2023-05-22T05:33:25.448Z,31.05
2023-05-22T05:36:03.762Z,29.33
2023-05-22T05:38:32.058Z,29.33
2023-05-22T05:40:59.236Z,30.70
2023-05-22T05:43:27.452Z,29.73
2023-05-22T05:45:58.963Z,29.20
2023-05-22T05:48:25.776Z,28.67
2023-05-22T05:50:52.648Z,27.63
2023-05-22T05:53:19.604Z,29.30
2023-05-22T05:55:54.490Z,30.98
2023-05-22T05:58:21.825Z,28.35
2023-05-22T06:01:01.153Z,26.90
2023-05-22T06:03:28.097Z,29.95
2023-05-22T06:06:14.268Z,27.35
2023-05-22T06:08:59.550Z,28.85
2023-05-22T06:11:34.981Z,29.55
2023-05-22T06:14:03.242Z,26.60
2023-05-22T06:16:30.340Z,27.27
2023-05-22T06:19:00.757Z,25.73
2023-05-22T06:21:27.786Z,26.42
2023-05-22T06:23:54.668Z,26.50
2023-05-22T06:26:22.356Z,27.20
2023-05-22T06:28:51.888Z,25.77
2023-05-22T06:31:20.079Z,24.00
2023-05-22T06:33:49.051Z,24.52
2023-05-22T06:36:16.163Z,23.75
2023-05-22T06:38:43.682Z,25.10
2023-05-22T06:41:26.145Z,25.13
2023-05-22T06:43:53.014Z,26.83
2023-05-22T06:46:26.856Z,25.65
2023-05-22T06:48:57.962Z,22.90
2023-05-22T06:51:26.714Z,24.67
2023-05-22T06:54:06.693Z,22.67
2023-05-22T06:56:33.615Z,23.95
2023-05-22T06:59:06.780Z,24.40
2023-05-22T07:01:56.417Z,22.52
2023-05-22T07:04:33.392Z,24.38
2023-05-22T07:07:03.457Z,23.88
2023-05-22T07:09:30.285Z,23.17
2023-05-22T07:11:57.061Z,23.85
2023-05-22T07:14:24.409Z,21.63
2023-05-22T07:16:51.791Z,25.00
2023-05-22T07:19:25.663Z,21.75
2023-05-22T07:21:54.842Z,23.67
2023-05-22T07:24:22.243Z,23.90
2023-05-22T07:26:50.402Z,24.83
2023-05-22T07:29:17.656Z,20.88
2023-05-22T07:31:47.938Z,23.58
2023-05-22T07:34:14.789Z,24.00
2023-05-22T07:36:42.343Z,23.67
2023-05-22T07:39:09.640Z,21.60
2023-05-22T07:41:40.033Z,24.60
2023-05-22T07:44:09.016Z,23.30
2023-05-22T07:46:38.093Z,26.25
2023-05-22T07:49:19.452Z,23.80
2023-05-22T07:51:47.092Z,22.63
2023-05-22T07:54:15.608Z,26.38
2023-05-22T07:56:45.728Z,23.00
2023-05-22T07:59:13.461Z,26.95
2023-05-22T08:01:41.708Z,23.45
2023-05-22T08:04:09.078Z,21.70
2023-05-22T08:06:36.158Z,17.25
2023-05-22T08:09:04.621Z,18.42
2023-05-22T08:11:34.300Z,17.02
2023-05-22T08:14:01.090Z,17.30
2023-05-22T08:16:27.896Z,19.05
2023-05-22T08:18:54.800Z,23.65
2023-05-22T08:21:21.677Z,23.27
2023-05-22T08:23:48.493Z,20.65
2023-05-22T08:26:15.995Z,24.20
2023-05-22T08:28:44.294Z,21.45
2023-05-22T08:31:11.899Z,24.15
2023-05-22T08:33:39.727Z,22.58
2023-05-22T08:36:06.682Z,21.33
2023-05-22T08:38:33.664Z,21.17
2023-05-22T08:41:00.820Z,23.83
2023-05-22T08:43:28.555Z,22.70
2023-05-22T08:46:06.093Z,22.25
2023-05-22T08:48:33.670Z,21.27
2023-05-22T08:51:05.971Z,21.73
2023-05-22T08:53:36.238Z,21.17
2023-05-22T08:56:06.975Z,20.10
2023-05-22T08:58:35.960Z,21.05
2023-05-22T09:01:07.275Z,17.92
2023-05-22T09:03:36.773Z,21.00
2023-05-22T09:06:04.551Z,19.90
2023-05-22T09:08:31.330Z,20.90
2023-05-22T09:10:58.312Z,20.13
2023-05-22T09:13:31.963Z,22.85
2023-05-22T09:16:07.848Z,21.42
2023-05-22T09:18:35.198Z,19.52
2023-05-22T09:21:03.693Z,18.90
2023-05-22T09:23:33.779Z,21.70
2023-05-22T09:26:02.333Z,20.52
2023-05-22T09:28:36.593Z,19.15
2023-05-22T09:31:04.484Z,20.25
2023-05-22T09:33:32.249Z,20.08
2023-05-22T09:35:59.856Z,19.80
2023-05-22T09:38:30.824Z,21.15
2023-05-22T09:40:57.721Z,19.08
2023-05-22T09:43:25.605Z,18.85
2023-05-22T09:46:01.774Z,20.10
2023-05-22T09:48:28.811Z,18.55
2023-05-22T09:50:58.076Z,16.23
2023-05-22T09:53:30.545Z,19.05
2023-05-22T09:56:00.432Z,18.48
2023-05-22T09:58:30.775Z,17.42
2023-05-22T10:00:58.150Z,18.80
2023-05-22T10:03:26.704Z,19.80
2023-05-22T10:05:58.462Z,18.48
2023-05-22T10:08:27.961Z,17.77
2023-05-22T10:10:55.116Z,17.77
2023-05-22T10:13:22.012Z,19.60
2023-05-22T10:15:49.688Z,16.23
2023-05-22T10:18:17.393Z,17.15
2023-05-22T10:20:46.699Z,18.40
2023-05-22T10:23:15.328Z,17.92
2023-05-22T10:25:42.956Z,17.27
2023-05-22T10:28:10.708Z,17.52
2023-05-22T10:30:47.983Z,15.52
2023-05-22T10:33:52.635Z,17.55
2023-05-22T10:37:12.984Z,14.52
2023-05-22T10:39:47.898Z,16.27
2023-05-22T10:42:15.341Z,17.48
2023-05-22T10:44:43.205Z,17.25
2023-05-22T10:47:12.507Z,15.77
2023-05-22T10:49:45.483Z,16.88
2023-05-22T10:52:14.927Z,16.45
2023-05-22T10:54:46.103Z,17.25
2023-05-22T10:57:17.110Z,17.40
2023-05-22T10:59:47.088Z,14.93
2023-05-22T11:02:29.901Z,17.10
2023-05-22T11:05:19.743Z,16.40
2023-05-22T11:07:46.494Z,18.38
2023-05-22T11:10:13.343Z,15.10
2023-05-22T11:12:41.446Z,15.93
2023-05-22T11:15:09.988Z,14.75
2023-05-22T11:17:39.567Z,16.42
2023-05-22T11:20:13.668Z,17.30
2023-05-22T11:22:43.218Z,16.13
2023-05-22T11:25:20.626Z,18.55
2023-05-22T11:27:48.623Z,18.05
2023-05-22T11:30:16.373Z,17.48
2023-05-22T11:32:45.125Z,17.75
2023-05-22T11:35:17.213Z,18.50
2023-05-22T11:40:18.446Z,17.58
2023-05-22T11:42:45.577Z,15.70
2023-05-22T11:45:12.635Z,18.27
2023-05-22T11:47:39.938Z,18.05
2023-05-22T11:50:09.891Z,16.15
2023-05-22T11:52:38.567Z,15.85
2023-05-22T11:55:05.976Z,15.98
2023-05-22T11:57:32.770Z,16.50
2023-05-22T11:59:59.563Z,17.10
2023-05-22T12:02:26.845Z,14.30
2023-05-22T12:04:57.850Z,16.02
2023-05-22T12:07:26.466Z,17.75
2023-05-22T12:09:56.142Z,16.05
2023-05-22T12:12:22.971Z,15.15
2023-05-22T12:14:49.828Z,16.73
2023-05-22T12:17:17.562Z,14.73
2023-05-22T12:19:47.164Z,15.60
2023-05-22T12:22:14.595Z,15.52
2023-05-22T12:24:46.054Z,12.65
2023-05-22T12:27:13.875Z,12.15
2023-05-22T12:29:41.572Z,10.10
2023-05-22T12:32:11.129Z,9.32
2023-05-22T12:34:45.527Z,13.18
2023-05-22T12:37:24.869Z,11.02
2023-05-22T12:39:59.238Z,9.50
2023-05-22T12:42:26.857Z,10.48
2023-05-22T12:44:55.488Z,10.43
2023-05-22T12:47:23.727Z,11.70
2023-05-22T12:49:51.164Z,13.35
2023-05-22T12:52:18.228Z,11.73
2023-05-22T12:54:45.430Z,12.00
2023-05-22T12:57:12.116Z,12.10
2023-05-22T12:59:38.942Z,10.30
2023-05-22T13:02:06.072Z,10.77
2023-05-22T13:04:32.980Z,11.60
2023-05-22T13:06:59.795Z,10.43
2023-05-22T13:09:26.631Z,10.88
2023-05-22T13:11:53.500Z,11.25
2023-05-22T13:14:21.254Z,10.63
2023-05-22T13:16:48.019Z,10.02
2023-05-22T13:19:14.904Z,11.27
2023-05-22T13:21:43.037Z,9.52
2023-05-22T13:24:09.764Z,10.27
2023-05-22T13:26:36.459Z,9.73
2023-05-22T13:29:03.253Z,10.27
2023-05-22T13:31:31.395Z,10.90
2023-05-22T13:33:58.644Z,11.05
2023-05-22T13:36:26.260Z,10.70
2023-05-22T13:38:52.960Z,11.15
2023-05-22T13:41:19.734Z,9.35
2023-05-22T13:43:46.449Z,10.18
2023-05-22T13:46:13.298Z,9.27
2023-05-22T13:48:40.117Z,10.15
2023-05-22T13:51:07.050Z,10.10
2023-05-22T13:53:33.950Z,8.70
2023-05-22T13:56:01.925Z,9.25
2023-05-22T13:58:28.705Z,10.20
2023-05-22T14:00:55.785Z,10.35
2023-05-22T14:03:22.544Z,10.18
2023-05-22T14:05:49.340Z,9.27
2023-05-22T14:08:16.176Z,10.52
2023-05-22T14:10:43.059Z,9.32
2023-05-22T14:13:09.845Z,9.55
2023-05-22T14:15:36.608Z,10.30
2023-05-22T14:18:03.549Z,9.38
2023-05-22T14:20:30.312Z,9.70
2023-05-22T14:22:58.081Z,10.48
2023-05-22T14:25:27.955Z,10.13
2023-05-22T14:27:54.823Z,9.52
2023-05-22T14:30:21.652Z,9.90
2023-05-22T14:32:48.769Z,10.35
2023-05-22T14:35:16.691Z,10.55
2023-05-22T14:37:44.117Z,9.30
2023-05-22T14:40:11.321Z,10.30
2023-05-22T14:42:38.910Z,10.10
2023-05-22T14:45:05.971Z,10.57
2023-05-22T14:47:32.804Z,10.45
2023-05-22T14:50:10.243Z,10.10
2023-05-22T14:52:45.541Z,10.35
2023-05-22T14:55:12.225Z,9.23
2023-05-22T14:57:38.983Z,9.68
2023-05-22T15:00:06.498Z,10.13
2023-05-22T15:02:33.702Z,11.98
2023-05-22T15:05:00.852Z,11.95
2023-05-22T15:07:35.978Z,13.88
2023-05-22T15:10:09.919Z,12.57
2023-05-22T15:12:37.011Z,13.65
2023-05-22T15:15:04.104Z,12.57
2023-05-22T15:17:31.158Z,12.23
2023-05-22T15:19:57.870Z,13.25
2023-05-22T15:22:24.827Z,12.57
2023-05-22T15:25:04.881Z,11.95
2023-05-22T15:27:35.275Z,12.65
2023-05-22T15:30:03.554Z,12.88
2023-05-22T15:32:32.281Z,12.68
2023-05-22T15:34:59.196Z,13.32
2023-05-22T15:37:30.291Z,13.88
2023-05-22T15:40:03.395Z,13.55
2023-05-22T15:42:31.036Z,14.93
2023-05-22T15:44:59.714Z,17.65
2023-05-22T15:47:26.967Z,15.55
2023-05-22T15:49:54.076Z,15.93
2023-05-22T15:52:23.544Z,17.85
2023-05-22T15:54:50.465Z,18.58
2023-05-22T15:57:17.958Z,17.35
2023-05-22T15:59:47.043Z,14.80
2023-05-22T16:02:14.169Z,16.48
2023-05-22T16:04:40.942Z,16.75
2023-05-22T16:07:07.632Z,15.27
2023-05-22T16:09:35.984Z,16.42
2023-05-22T16:12:03.282Z,16.27
2023-05-22T16:14:30.468Z,14.80
2023-05-22T16:16:57.311Z,14.93
2023-05-22T16:19:24.382Z,14.48
2023-05-22T16:21:51.077Z,13.77
2023-05-22T16:24:17.936Z,11.52
2023-05-22T16:26:44.944Z,10.80
2023-05-22T16:29:11.725Z,8.80
2023-05-22T16:31:38.545Z,8.10
2023-05-22T16:34:05.839Z,7.95
2023-05-22T16:36:32.806Z,7.45
2023-05-22T16:38:59.485Z,6.97
2023-05-22T16:41:26.830Z,6.95
2023-05-22T16:43:53.823Z,8.00
2023-05-22T16:46:21.010Z,7.90
2023-05-22T16:48:47.832Z,8.63
2023-05-22T16:51:14.502Z,8.20
2023-05-22T16:53:43.914Z,7.47
2023-05-22T16:56:10.708Z,6.80
2023-05-22T16:58:37.433Z,6.90
2023-05-22T17:01:06.432Z,6.05
2023-05-22T17:03:34.007Z,6.20
2023-05-22T17:06:03.037Z,5.70
2023-05-22T17:08:30.073Z,5.47
2023-05-22T17:10:56.860Z,6.00
2023-05-22T17:13:23.732Z,6.15
2023-05-22T17:15:51.269Z,5.85
2023-05-22T17:18:22.102Z,5.28
2023-05-22T17:20:50.042Z,5.22
2023-05-22T17:23:17.259Z,5.45
2023-05-22T17:25:46.511Z,5.72
2023-05-22T17:28:14.701Z,5.18
2023-05-22T17:30:43.040Z,5.25
2023-05-22T17:33:10.920Z,5.22
2023-05-22T17:35:37.845Z,5.20
2023-05-22T17:38:04.988Z,4.43
2023-05-22T17:40:43.889Z,4.75
2023-05-22T17:43:12.945Z,5.05
2023-05-22T17:45:40.015Z,4.50
2023-05-22T17:48:07.782Z,4.50
2023-05-22T17:50:34.733Z,4.68
2023-05-22T17:53:01.606Z,4.13
2023-05-22T17:55:28.357Z,5.75
2023-05-22T17:57:55.262Z,4.78
2023-05-22T18:00:21.987Z,5.03
2023-05-22T18:02:48.833Z,4.88
2023-05-22T18:05:15.781Z,4.82
2023-05-22T18:07:43.831Z,5.03
2023-05-22T18:10:11.008Z,7.50
2023-05-22T18:12:38.656Z,4.68
2023-05-22T18:15:08.447Z,4.28
2023-05-22T18:17:35.301Z,4.70
2023-05-22T18:20:02.179Z,3.67
2023-05-22T18:22:28.933Z,4.90
2023-05-22T18:24:56.216Z,4.45
2023-05-22T18:27:23.123Z,4.72
2023-05-22T18:29:51.579Z,3.90
2023-05-22T18:32:18.520Z,4.38
2023-05-22T18:34:45.208Z,5.18
2023-05-22T18:37:12.009Z,5.30
2023-05-22T18:39:38.874Z,4.90
2023-05-22T18:42:05.798Z,4.90
2023-05-22T18:44:32.508Z,4.53
2023-05-22T18:46:59.314Z,5.10
2023-05-22T18:49:26.312Z,4.70
2023-05-22T18:51:53.165Z,5.38
2023-05-22T18:54:20.037Z,5.32
2023-05-22T18:56:46.789Z,4.72
2023-05-22T18:59:13.590Z,4.93
2023-05-22T19:01:40.432Z,5.90
2023-05-22T19:04:07.866Z,4.93
2023-05-22T19:06:35.562Z,4.57
2023-05-22T19:09:02.473Z,4.60
2023-05-22T19:11:29.360Z,4.70
2023-05-22T19:13:56.132Z,5.20
2023-05-22T19:16:22.967Z,4.47
2023-05-22T19:18:50.070Z,4.80
2023-05-22T19:21:16.938Z,4.68
2023-05-22T19:23:43.666Z,5.00
2023-05-22T19:26:10.425Z,4.53
2023-05-22T19:28:37.147Z,4.65
2023-05-22T19:31:03.994Z,4.90
2023-05-22T19:33:33.882Z,5.22
2023-05-22T19:36:02.103Z,5.65
2023-05-22T19:38:28.999Z,5.15
2023-05-22T19:40:55.773Z,5.20
2023-05-22T19:43:22.765Z,5.10
2023-05-22T19:45:49.506Z,4.82
2023-05-22T19:48:16.526Z,5.18
2023-05-22T19:50:43.553Z,5.43
2023-05-22T19:53:10.911Z,4.93
2023-05-22T19:55:37.741Z,5.57
2023-05-22T19:58:04.461Z,5.80
2023-05-22T20:00:32.081Z,5.18
2023-05-22T20:02:59.074Z,4.95
2023-05-22T20:05:26.138Z,5.13
2023-05-22T20:07:52.918Z,5.43
2023-05-22T20:10:19.908Z,5.30
2023-05-22T20:12:47.167Z,6.47
2023-05-22T20:15:14.886Z,5.97
2023-05-22T20:17:42.528Z,5.40
2023-05-22T20:20:09.808Z,6.03
2023-05-22T20:22:36.582Z,7.50
2023-05-22T20:25:05.214Z,6.50
2023-05-22T20:27:32.097Z,6.28
2023-05-22T20:30:01.337Z,6.78
2023-05-22T20:32:28.574Z,6.13
2023-05-22T20:34:55.424Z,6.47
2023-05-22T20:37:22.971Z,6.30
2023-05-22T20:39:50.213Z,7.13
2023-05-22T20:42:20.133Z,6.82
2023-05-22T20:44:47.407Z,6.35
2023-05-22T20:47:14.153Z,6.43
2023-05-22T20:49:41.167Z,6.68
2023-05-22T20:52:09.881Z,6.18
2023-05-22T20:54:36.681Z,6.60
2023-05-22T20:57:04.051Z,6.72
2023-05-22T20:59:30.928Z,6.82
2023-05-22T21:01:57.855Z,6.68
2023-05-22T21:04:25.905Z,6.18
2023-05-22T21:06:52.764Z,6.35
2023-05-22T21:09:19.640Z,6.55
2023-05-22T21:11:46.408Z,6.80
2023-05-22T21:14:13.992Z,7.03
2023-05-22T21:16:40.867Z,7.10
2023-05-22T21:19:07.780Z,7.10
2023-05-22T21:21:36.142Z,7.43
2023-05-22T21:24:03.319Z,8.55
2023-05-22T21:26:30.352Z,9.15
2023-05-22T21:28:57.247Z,9.30
2023-05-22T21:31:24.062Z,10.45
2023-05-22T21:33:51.075Z,10.90
2023-05-22T21:36:18.006Z,11.32
2023-05-22T21:38:45.227Z,11.52
2023-05-22T21:41:12.756Z,11.15
2023-05-22T21:43:39.622Z,9.43
2023-05-22T21:46:06.434Z,9.40
2023-05-22T21:48:33.674Z,9.05
2023-05-22T21:51:00.431Z,8.35
2023-05-22T21:53:27.225Z,8.35
2023-05-22T21:55:54.052Z,8.20
2023-05-22T21:58:21.016Z,7.93
2023-05-22T22:00:47.762Z,7.75
2023-05-22T22:03:15.001Z,8.30
2023-05-22T22:05:41.947Z,7.22
2023-05-22T22:08:08.779Z,7.85
2023-05-22T22:10:35.616Z,7.05
2023-05-22T22:13:02.637Z,6.47
2023-05-22T22:15:29.830Z,7.38
2023-05-22T22:18:02.208Z,8.35
2023-05-22T22:23:10.834Z,8.55
2023-05-22T22:25:38.953Z,9.18
2023-05-22T22:28:06.026Z,8.20
2023-05-22T22:30:32.924Z,8.88
2023-05-22T22:32:59.809Z,8.98
2023-05-22T22:35:26.628Z,10.18
2023-05-22T22:37:53.340Z,9.43
2023-05-22T22:40:20.033Z,10.32
2023-05-22T22:42:46.772Z,9.32
2023-05-22T22:45:14.543Z,8.98
2023-05-22T22:47:41.378Z,10.23
2023-05-22T22:50:09.852Z,10.30
2023-05-22T22:52:37.902Z,11.10
2023-05-22T22:55:09.036Z,10.73
2023-05-22T22:57:36.159Z,11.27
2023-05-22T23:00:03.698Z,9.98
2023-05-22T23:02:30.681Z,11.20
2023-05-22T23:04:57.488Z,10.60
2023-05-22T23:07:24.639Z,11.18
2023-05-22T23:09:51.383Z,10.80
2023-05-22T23:12:18.149Z,11.27
2023-05-22T23:14:44.940Z,12.40
2023-05-22T23:17:11.729Z,11.57
2023-05-22T23:19:38.483Z,11.07
2023-05-22T23:22:05.790Z,10.48
2023-05-22T23:24:33.959Z,10.90
2023-05-22T23:27:01.879Z,10.60
2023-05-22T23:29:28.670Z,10.63
2023-05-22T23:31:55.617Z,10.02
2023-05-22T23:34:22.506Z,9.63
2023-05-22T23:36:49.297Z,10.52
2023-05-22T23:39:16.128Z,9.20
2023-05-22T23:41:42.825Z,9.50
2023-05-22T23:44:09.781Z,9.57
2023-05-22T23:46:37.590Z,9.00
2023-05-22T23:49:04.449Z,9.55
2023-05-22T23:51:31.348Z,11.15
2023-05-22T23:53:58.047Z,10.85
2023-05-22T23:56:24.920Z,12.38
2023-05-22T23:58:51.673Z,13.35
